Main page
METAR-TAF:

METAR-TAF

Airports :

Helsinki Airport

Helsinki, Finland

latitude: 60-19N, longitude: 024-58E, elevation: 51 m

Current weather observation

The report was made 13 minutes ago, at 01:20 UTC
Wind 3 kt from the West
Temperature 8°C
Humidity 100%
Pressure 1026 hPa
Visibility 10 km or more
no clouds below 1500 m and no cumulonimbus

METAR: EFHK 100120Z 28003KT CAVOK 08/08 Q1026 NOSIG

Time: 04:33 (01:33 UTC)

Forecast

The report was made 2 hours and 10 minutes ago, at 23:23 UTC
Forecast valid from 10 at 00 UTC to 10 at 24 UTC
Wind 2 kt from variable directions
Visibility 10 km or more
no clouds below 1500 m and no cumulonimbus
Becoming
from 10 at 08 UTC to 10 at 10 UTC
Wind 10 kt from the Southwest
Becoming
from 10 at 18 UTC to 10 at 20 UTC
Wind 2 kt from variable directions

TAF: EFHK 092323Z 1000/1024 VRB02KT CAVOK BECMG 1008/1010 23010KT BECMG 1018/1020 VRB02KT

Weather observations and forecasts of more than 4000 airports (METAR and TAF reports).

The available stations are represented by yellow and red dots on the map.

Hover mouse over dot to see the name of the station.

Then click to see weather observations and forecasts.

To change the map : click on the green buttons with a black cross to zoom in, on the green button with a dash to zoom out, or on the green arrows for adjacent maps.


METAR-TAF: